createdAt,value
2023-03-21T00:01:58.669Z,101259.03
2023-03-21T00:04:28.358Z,101255.75
2023-03-21T00:06:57.741Z,101254.63
2023-03-21T00:09:24.229Z,101252.41
2023-03-21T00:11:50.649Z,101257.13
2023-03-21T00:14:18.732Z,101250.44
2023-03-21T00:16:50.380Z,101252.06
2023-03-21T00:19:20.772Z,101248.44
2023-03-21T00:22:05.521Z,101249.03
2023-03-21T00:24:33.156Z,101246.50
2023-03-21T00:27:10.690Z,101245.66
2023-03-21T00:29:49.286Z,101240.06
2023-03-21T00:32:19.186Z,101240.06
2023-03-21T00:35:01.558Z,101243.97
2023-03-21T00:37:33.103Z,101241.19
2023-03-21T00:39:59.600Z,101246.50
2023-03-21T00:42:26.386Z,101240.59
2023-03-21T00:44:52.818Z,101238.66
2023-03-21T00:47:19.235Z,101231.38
2023-03-21T00:49:45.864Z,101237.81
2023-03-21T00:52:18.572Z,101235.81
2023-03-21T00:54:48.719Z,101235.25
2023-03-21T00:57:15.356Z,101233.25
2023-03-21T00:59:41.754Z,101228.59
2023-03-21T01:02:14.511Z,101231.03
2023-03-21T01:04:40.972Z,101233.19
2023-03-21T01:07:07.373Z,101224.28
2023-03-21T01:09:33.770Z,101232.38
2023-03-21T01:12:00.202Z,101233.75
2023-03-21T01:14:26.595Z,101229.28
2023-03-21T01:16:53.855Z,101228.75
2023-03-21T01:19:29.046Z,101228.50
2023-03-21T01:21:58.097Z,101221.78
2023-03-21T01:24:25.452Z,101223.44
2023-03-21T01:26:52.054Z,101226.16
2023-03-21T01:29:18.492Z,101227.50
2023-03-21T01:31:45.074Z,101229.16
2023-03-21T01:34:11.776Z,101231.44
2023-03-21T01:36:38.287Z,101226.38
2023-03-21T01:39:08.721Z,101229.16
2023-03-21T01:41:43.380Z,101229.97
2023-03-21T01:44:18.983Z,101224.91
2023-03-21T01:47:00.416Z,101221.88
2023-03-21T01:49:49.624Z,101222.41
2023-03-21T01:52:37.475Z,101221.91
2023-03-21T01:55:11.889Z,101224.91
2023-03-21T01:58:04.866Z,101221.59
2023-03-21T02:00:38.303Z,101224.91
2023-03-21T02:03:33.251Z,101225.38
2023-03-21T02:06:15.628Z,101218.47
2023-03-21T02:08:46.680Z,101228.75
2023-03-21T02:11:16.210Z,101213.47
2023-03-21T02:13:43.298Z,101217.06
2023-03-21T02:16:37.573Z,101216.75
2023-03-21T02:19:39.259Z,101215.94
2023-03-21T02:22:35.309Z,101210.06
2023-03-21T02:25:41.326Z,101213.88
2023-03-21T02:28:19.059Z,101208.91
2023-03-21T02:31:20.722Z,101201.69
2023-03-21T02:34:21.760Z,101211.72
2023-03-21T02:36:54.771Z,101212.44
2023-03-21T02:39:27.310Z,101204.66
2023-03-21T02:50:46.246Z,101207.16
2023-03-21T02:53:25.505Z,101208.53
2023-03-21T02:55:54.697Z,101210.81
2023-03-21T02:58:24.412Z,101205.25
2023-03-21T03:00:56.221Z,101209.41
2023-03-21T03:03:34.806Z,101209.66
2023-03-21T03:06:09.814Z,101212.66
2023-03-21T03:09:07.574Z,101208.53
2023-03-21T03:11:41.376Z,101213.03
2023-03-21T03:14:46.949Z,101208.59
2023-03-21T03:17:47.036Z,101218.13
2023-03-21T03:20:46.827Z,101213.22
2023-03-21T03:23:26.287Z,101208.81
2023-03-21T03:26:02.423Z,101208.22
2023-03-21T03:28:36.581Z,101211.59
2023-03-21T03:31:12.734Z,101206.81
2023-03-21T03:33:52.450Z,101208.53
2023-03-21T03:36:31.684Z,101208.75
2023-03-21T03:39:05.460Z,101210.47
2023-03-21T03:42:04.394Z,101214.34
2023-03-21T03:44:31.006Z,101206.75
2023-03-21T03:47:08.709Z,101207.63
2023-03-21T03:49:41.778Z,101211.59
2023-03-21T03:52:16.282Z,101198.72
2023-03-21T03:54:48.953Z,101208.75
2023-03-21T03:57:16.690Z,101211.78
2023-03-21T03:59:46.320Z,101210.53
2023-03-21T04:02:21.770Z,101204.28
2023-03-21T04:04:52.864Z,101208.91
2023-03-21T04:07:21.494Z,101198.53
2023-03-21T04:09:49.650Z,101210.34
2023-03-21T04:12:19.283Z,101205.31
2023-03-21T04:15:21.206Z,101204.44
2023-03-21T04:17:56.408Z,101210.91
2023-03-21T04:20:43.262Z,101200.81
2023-03-21T04:23:11.175Z,101197.22
2023-03-21T04:25:47.567Z,101198.53
2023-03-21T04:28:22.040Z,101198.66
2023-03-21T04:31:03.796Z,101204.75
2023-03-21T04:33:42.254Z,101201.09
2023-03-21T04:36:09.865Z,101197.19
2023-03-21T04:38:37.171Z,101202.75
2023-03-21T04:41:04.578Z,101204.53
2023-03-21T04:43:32.011Z,101198.38
2023-03-21T04:45:58.445Z,101203.28
2023-03-21T04:48:25.448Z,101201.91
2023-03-21T04:50:52.309Z,101205.28
2023-03-21T04:53:18.753Z,101209.16
2023-03-21T04:55:45.282Z,101205.28
2023-03-21T04:58:11.988Z,101208.56
2023-03-21T05:00:39.074Z,101204.13
2023-03-21T05:03:09.028Z,101203.28
2023-03-21T05:05:37.263Z,101202.38
2023-03-21T05:08:04.957Z,101201.59
2023-03-21T05:10:31.366Z,101204.00
2023-03-21T05:12:57.963Z,101202.84
2023-03-21T05:15:25.635Z,101199.28
2023-03-21T05:17:52.053Z,101202.50
2023-03-21T05:20:19.001Z,101198.00
2023-03-21T05:22:46.213Z,101194.53
2023-03-21T05:25:14.615Z,101198.94
2023-03-21T05:28:07.831Z,101198.94
2023-03-21T05:30:34.535Z,101194.22
2023-03-21T05:33:02.159Z,101196.88
2023-03-21T05:35:29.011Z,101192.97
2023-03-21T05:37:58.252Z,101200.44
2023-03-21T05:40:27.483Z,101198.13
2023-03-21T05:42:57.239Z,101197.94
2023-03-21T05:45:24.673Z,101195.28
2023-03-21T05:47:51.604Z,101199.59
2023-03-21T05:50:20.748Z,101208.09
2023-03-21T05:53:00.482Z,101196.03
2023-03-21T05:55:27.005Z,101204.75
2023-03-21T05:57:53.650Z,101202.53
2023-03-21T06:00:25.637Z,101208.13
2023-03-21T06:03:09.669Z,101206.84
2023-03-21T06:05:57.843Z,101208.13
2023-03-21T06:08:28.376Z,101207.13
2023-03-21T06:10:55.578Z,101206.31
2023-03-21T06:13:22.510Z,101206.38
2023-03-21T06:15:49.066Z,101214.69
2023-03-21T06:18:19.191Z,101217.28
2023-03-21T06:20:55.007Z,101217.59
2023-03-21T06:23:21.623Z,101211.91
2023-03-21T06:25:48.298Z,101218.34
2023-03-21T06:28:14.888Z,101220.81
2023-03-21T06:30:41.640Z,101219.72
2023-03-21T06:33:21.229Z,101216.59
2023-03-21T06:35:55.986Z,101220.03
2023-03-21T06:38:23.614Z,101216.72
2023-03-21T06:40:52.756Z,101216.72
2023-03-21T06:43:20.764Z,101217.47
2023-03-21T06:45:47.361Z,101213.13
2023-03-21T06:48:13.816Z,101217.47
2023-03-21T06:50:50.254Z,101209.13
2023-03-21T06:53:18.474Z,101225.91
2023-03-21T06:56:14.761Z,101214.22
2023-03-21T06:58:42.089Z,101214.75
2023-03-21T07:01:15.121Z,101215.94
2023-03-21T07:03:53.596Z,101218.13
2023-03-21T07:06:22.222Z,101219.56
2023-03-21T07:08:48.653Z,101219.91
2023-03-21T07:11:16.549Z,101221.41
2023-03-21T07:13:48.546Z,101219.91
2023-03-21T07:16:16.640Z,101217.72
2023-03-21T07:18:43.166Z,101221.47
2023-03-21T07:21:11.466Z,101230.31
2023-03-21T07:23:41.426Z,101217.72
2023-03-21T07:26:08.291Z,101229.88
2023-03-21T07:28:50.249Z,101227.69
2023-03-21T07:31:19.358Z,101223.59
2023-03-21T07:33:48.093Z,101223.47
2023-03-21T07:36:15.862Z,101228.34
2023-03-21T07:38:45.943Z,101224.13
2023-03-21T07:41:13.645Z,101227.00
2023-03-21T07:43:40.117Z,101226.47
2023-03-21T07:46:09.681Z,101232.63
2023-03-21T07:48:37.188Z,101237.13
2023-03-21T07:51:03.770Z,101226.00
2023-03-21T07:53:30.186Z,101222.72
2023-03-21T07:55:56.758Z,101228.00
2023-03-21T07:58:24.603Z,101223.25
2023-03-21T08:00:53.248Z,101223.03
2023-03-21T08:03:19.712Z,101224.47
2023-03-21T08:05:46.510Z,101224.38
2023-03-21T08:08:12.896Z,101223.25
2023-03-21T08:10:39.648Z,101218.88
2023-03-21T08:13:06.045Z,101222.22
2023-03-21T08:15:32.514Z,101220.63
2023-03-21T08:17:59.892Z,101219.47
2023-03-21T08:20:27.416Z,101223.97
2023-03-21T08:22:54.323Z,101223.19
2023-03-21T08:25:21.788Z,101225.72
2023-03-21T08:27:49.970Z,101222.91
2023-03-21T08:30:19.388Z,101224.88
2023-03-21T08:32:46.211Z,101228.50
2023-03-21T08:35:15.926Z,101224.25
2023-03-21T08:37:43.226Z,101229.94
2023-03-21T08:40:13.315Z,101227.13
2023-03-21T08:42:43.885Z,101224.13
2023-03-21T08:45:11.866Z,101224.13
2023-03-21T08:47:39.148Z,101237.00
2023-03-21T08:50:07.671Z,101228.63
2023-03-21T08:52:34.506Z,101230.91
2023-03-21T08:55:02.261Z,101228.06
2023-03-21T08:57:29.561Z,101234.53
2023-03-21T08:59:56.076Z,101225.25
2023-03-21T09:02:22.503Z,101226.63
2023-03-21T09:04:49.001Z,101221.09
2023-03-21T09:07:17.141Z,101228.94
2023-03-21T09:09:43.770Z,101220.03
2023-03-21T09:12:11.119Z,101222.84
2023-03-21T09:14:37.593Z,101223.97
2023-03-21T09:17:04.034Z,101226.53
2023-03-21T09:19:31.854Z,101224.34
2023-03-21T09:21:58.264Z,101228.25
2023-03-21T09:24:24.752Z,101228.78
2023-03-21T09:26:51.617Z,101228.28
2023-03-21T09:29:19.526Z,101233.00
2023-03-21T09:31:46.993Z,101231.63
2023-03-21T09:34:15.226Z,101232.75
2023-03-21T09:36:44.036Z,101227.47
2023-03-21T09:39:11.938Z,101224.41
2023-03-21T09:42:06.301Z,101219.09
2023-03-21T09:44:46.531Z,101224.19
2023-03-21T09:47:29.398Z,101223.66
2023-03-21T09:50:14.802Z,101213.31
2023-03-21T09:53:30.940Z,101213.31
2023-03-21T09:55:57.374Z,101213.91
2023-03-21T09:58:40.459Z,101218.94
2023-03-21T10:01:22.298Z,101217.53
2023-03-21T10:03:50.577Z,101213.06
2023-03-21T10:06:17.653Z,101211.66
2023-03-21T10:08:47.032Z,101204.09
2023-03-21T10:11:21.610Z,101199.06
2023-03-21T10:14:01.697Z,101195.72
2023-03-21T10:16:49.645Z,101184.50
2023-03-21T10:19:19.554Z,101186.19
2023-03-21T10:22:00.219Z,101192.09
2023-03-21T10:24:29.500Z,101188.16
2023-03-21T10:26:56.911Z,101187.59
2023-03-21T10:29:28.567Z,101186.78
2023-03-21T10:31:55.801Z,101186.47
2023-03-21T10:34:32.809Z,101182.56
2023-03-21T10:37:01.644Z,101171.91
2023-03-21T10:39:35.613Z,101175.81
2023-03-21T10:42:02.021Z,101169.69
2023-03-21T10:44:31.457Z,101177.22
2023-03-21T10:47:04.878Z,101173.88
2023-03-21T10:49:40.189Z,101173.56
2023-03-21T10:52:11.657Z,101181.41
2023-03-21T10:54:38.056Z,101171.59
2023-03-21T10:57:09.134Z,101170.22
2023-03-21T10:59:38.697Z,101175.28
2023-03-21T11:02:06.936Z,101173.00
2023-03-21T11:04:33.689Z,101164.03
2023-03-21T11:07:07.463Z,101169.94
2023-03-21T11:09:52.492Z,101172.16
2023-03-21T11:12:29.488Z,101163.50
2023-03-21T11:14:57.277Z,101157.31
2023-03-21T11:17:30.014Z,101167.13
2023-03-21T11:20:05.440Z,101160.63
2023-03-21T11:22:40.943Z,101157.53
2023-03-21T11:25:12.111Z,101150.25
2023-03-21T11:27:48.966Z,101153.25
2023-03-21T11:30:26.984Z,101142.53
2023-03-21T11:32:56.269Z,101141.28
2023-03-21T11:35:27.927Z,101135.06
2023-03-21T11:37:56.537Z,101131.34
2023-03-21T11:40:31.675Z,101124.28
2023-03-21T11:43:00.506Z,101125.31
2023-03-21T11:45:35.853Z,101124.72
2023-03-21T11:48:11.649Z,101120.75
2023-03-21T11:50:42.507Z,101119.28
2023-03-21T11:53:38.392Z,101121.78
2023-03-21T11:56:25.839Z,101109.72
2023-03-21T11:59:07.644Z,101118.47
2023-03-21T12:01:45.950Z,101106.88
2023-03-21T12:04:54.283Z,101106.91
2023-03-21T12:07:39.482Z,101108.84
2023-03-21T12:10:29.609Z,101102.34
2023-03-21T12:13:32.602Z,101109.59
2023-03-21T12:16:32.578Z,101089.53
2023-03-21T12:19:13.274Z,101092.56
2023-03-21T12:21:55.056Z,101087.84
2023-03-21T12:24:49.424Z,101087.84
2023-03-21T12:27:38.144Z,101088.38
2023-03-21T12:30:18.550Z,101082.09
2023-03-21T12:33:00.327Z,101074.28
2023-03-21T12:36:04.023Z,101070.44
2023-03-21T12:38:43.326Z,101062.38
2023-03-21T12:41:17.563Z,101058.44
2023-03-21T12:43:49.470Z,101067.34
2023-03-21T12:46:29.785Z,101064.78
2023-03-21T12:49:02.708Z,101055.56
2023-03-21T12:51:33.854Z,101055.44
2023-03-21T12:54:23.057Z,101060.34
2023-03-21T12:57:23.278Z,101053.59
2023-03-21T12:59:59.035Z,101054.59
2023-03-21T13:02:42.992Z,101053.22
2023-03-21T13:05:18.321Z,101047.66
2023-03-21T13:07:49.912Z,101045.03
2023-03-21T13:10:21.007Z,101042.69
2023-03-21T13:12:56.269Z,101032.50
2023-03-21T13:15:44.312Z,101039.53
2023-03-21T13:18:32.195Z,101035.56
2023-03-21T13:21:03.365Z,101026.84
2023-03-21T13:23:38.255Z,101027.63
2023-03-21T13:26:11.135Z,101021.63
2023-03-21T13:28:40.946Z,101020.84
2023-03-21T13:31:21.567Z,101014.13
2023-03-21T13:33:54.221Z,101016.47
2023-03-21T13:36:27.941Z,101018.81
2023-03-21T13:39:00.612Z,101017.44
2023-03-21T13:41:38.953Z,101015.88
2023-03-21T13:44:16.647Z,101013.94
2023-03-21T13:47:07.081Z,101011.47
2023-03-21T13:49:38.014Z,101003.13
2023-03-21T13:52:10.218Z,101002.63
2023-03-21T13:54:44.949Z,101006.38
2023-03-21T13:57:27.212Z,101000.06
2023-03-21T14:00:17.490Z,101003.03
2023-03-21T14:02:58.033Z,101000.81
2023-03-21T14:05:26.377Z,101005.47
2023-03-21T14:08:12.424Z,100992.00
2023-03-21T14:10:44.929Z,100997.13
2023-03-21T14:13:17.031Z,100988.09
2023-03-21T14:15:55.859Z,100988.63
2023-03-21T14:18:35.179Z,100992.75
2023-03-21T14:21:23.426Z,100986.00
2023-03-21T14:24:11.431Z,100983.41
2023-03-21T14:26:43.363Z,100987.00
2023-03-21T14:29:25.745Z,100983.13
2023-03-21T14:31:56.314Z,100979.66
2023-03-21T14:34:27.152Z,100980.53
2023-03-21T14:36:58.304Z,100974.91
2023-03-21T14:39:32.692Z,100961.75
2023-03-21T14:42:12.262Z,100967.25
2023-03-21T14:44:58.637Z,100964.66
2023-03-21T14:47:31.997Z,100953.91
2023-03-21T14:50:00.971Z,100957.47
2023-03-21T14:52:31.985Z,100956.31
2023-03-21T14:54:59.485Z,100951.25
2023-03-21T14:57:29.114Z,100943.63
2023-03-21T15:00:00.402Z,100949.66
2023-03-21T15:02:31.524Z,100943.84
2023-03-21T15:05:06.137Z,100944.09
2023-03-21T15:07:34.170Z,100942.47
2023-03-21T15:10:04.654Z,100938.78
2023-03-21T15:12:32.312Z,100937.09
2023-03-21T15:14:59.943Z,100931.47
2023-03-21T15:17:28.216Z,100937.03
2023-03-21T15:19:54.698Z,100932.03
2023-03-21T15:22:44.255Z,100928.53
2023-03-21T15:25:16.878Z,100918.22
2023-03-21T15:27:43.871Z,100926.59
2023-03-21T15:30:20.426Z,100919.66
2023-03-21T15:32:47.489Z,100917.00
2023-03-21T15:35:21.130Z,100915.81
2023-03-21T15:37:57.118Z,100919.47
2023-03-21T15:40:29.620Z,100921.19
2023-03-21T15:43:07.286Z,100915.06
2023-03-21T15:45:33.812Z,100911.63
2023-03-21T15:48:09.376Z,100907.47
2023-03-21T15:50:39.239Z,100903.28
2023-03-21T15:53:13.722Z,100896.97
2023-03-21T15:55:52.551Z,100893.91
2023-03-21T15:58:22.167Z,100900.91
2023-03-21T16:00:55.446Z,100893.41
2023-03-21T16:03:25.801Z,100887.22
2023-03-21T16:06:11.376Z,100883.34
2023-03-21T16:08:47.592Z,100883.25
2023-03-21T16:11:16.174Z,100878.88
2023-03-21T16:13:42.672Z,100882.66
2023-03-21T16:16:17.002Z,100883.03
2023-03-21T16:18:43.457Z,100882.16
2023-03-21T16:21:12.520Z,100881.22
2023-03-21T16:23:38.938Z,100883.50
2023-03-21T16:26:05.675Z,100892.47
2023-03-21T16:28:33.173Z,100884.88
2023-03-21T16:30:59.587Z,100887.44
2023-03-21T16:33:25.994Z,100888.28
2023-03-21T16:35:53.991Z,100888.53
2023-03-21T16:38:20.472Z,100891.94
2023-03-21T17:06:03.918Z,100873.91
2023-03-21T17:08:30.486Z,100871.84
2023-03-21T17:10:59.037Z,100871.63
2023-03-21T17:13:25.668Z,100874.66
2023-03-21T17:15:52.067Z,100869.03
2023-03-21T17:18:18.466Z,100871.84
2023-03-21T17:20:44.999Z,100871.25
2023-03-21T17:23:11.926Z,100869.59
2023-03-21T17:25:38.361Z,100858.94
2023-03-21T17:28:04.768Z,100874.66
2023-03-21T17:30:33.922Z,100867.38
2023-03-21T17:33:00.578Z,100862.97
2023-03-21T17:35:27.714Z,100858.47
2023-03-21T17:37:58.146Z,100854.28
2023-03-21T17:40:30.220Z,100851.25
2023-03-21T17:42:58.021Z,100850.09
2023-03-21T17:45:25.302Z,100844.63
2023-03-21T17:47:52.087Z,100851.31
2023-03-21T17:50:22.586Z,100853.00
2023-03-21T17:52:50.731Z,100854.66
2023-03-21T17:55:20.995Z,100855.81
2023-03-21T17:57:48.661Z,100846.63
2023-03-21T18:00:19.725Z,100854.78
2023-03-21T18:02:46.462Z,100855.28
2023-03-21T18:05:13.216Z,100861.50
2023-03-21T18:10:28.105Z,100860.72
2023-03-21T18:12:56.260Z,100865.81
2023-03-21T18:15:24.235Z,100859.97
2023-03-21T18:17:51.016Z,100864.91
2023-03-21T18:20:20.900Z,100863.28
2023-03-21T18:22:48.049Z,100859.59
2023-03-21T18:25:16.194Z,100862.09
2023-03-21T18:28:06.768Z,100862.41
2023-03-21T18:30:53.113Z,100868.63
2023-03-21T18:33:16.338Z,100869.28
2023-03-21T18:35:42.839Z,100866.63
2023-03-21T18:38:09.362Z,100873.69
2023-03-21T18:40:36.213Z,100869.28
2023-03-21T18:43:56.060Z,100870.88
2023-03-21T18:45:49.283Z,100868.72
2023-03-21T18:48:16.155Z,100872.63
2023-03-21T18:50:43.024Z,100872.31
2023-03-21T18:53:09.943Z,100867.03
2023-03-21T18:55:46.120Z,100872.03
2023-03-21T18:58:14.392Z,100869.50
2023-03-21T19:00:42.718Z,100867.69
2023-03-21T19:03:30.722Z,100874.16
2023-03-21T19:06:03.619Z,100868.34
2023-03-21T19:08:30.789Z,100867.94
2023-03-21T19:11:00.235Z,100870.22
2023-03-21T19:13:28.121Z,100859.09
2023-03-21T19:15:54.537Z,100866.38
2023-03-21T19:21:08.052Z,100863.94
2023-03-21T19:24:03.862Z,100861.97
2023-03-21T19:26:22.047Z,100864.81
2023-03-21T19:28:48.476Z,100865.47
2023-03-21T19:31:14.869Z,100869.13
2023-03-21T19:33:41.412Z,100862.06
2023-03-21T19:36:17.917Z,100866.34
2023-03-21T19:38:47.496Z,100864.69
2023-03-21T19:41:14.099Z,100867.88
2023-03-21T19:43:43.460Z,100864.78
2023-03-21T19:46:19.905Z,100866.28
2023-03-21T19:48:46.544Z,100860.69
2023-03-21T19:51:27.503Z,100863.22
2023-03-21T19:53:55.047Z,100857.66
2023-03-21T19:56:24.591Z,100856.53
2023-03-21T19:58:53.250Z,100860.13
2023-03-21T20:01:19.676Z,100859.53
2023-03-21T20:03:46.470Z,100858.94
2023-03-21T20:06:13.073Z,100858.94
2023-03-21T20:11:26.159Z,100859.16
2023-03-21T20:13:52.614Z,100867.88
2023-03-21T20:16:20.370Z,100863.41
2023-03-21T20:18:47.230Z,100858.09
2023-03-21T20:21:18.031Z,100860.03
2023-03-21T20:23:49.147Z,100863.19
2023-03-21T20:26:16.249Z,100873.53
2023-03-21T20:28:55.888Z,100869.41
2023-03-21T20:31:26.226Z,100868.03
2023-03-21T20:33:53.141Z,100869.41
2023-03-21T20:39:08.557Z,100877.03
2023-03-21T20:41:34.954Z,100866.09
2023-03-21T20:46:48.014Z,100854.06
2023-03-21T20:49:15.408Z,100851.22
2023-03-21T20:54:29.629Z,100832.25
2023-03-21T20:56:56.693Z,100831.69
2023-03-21T20:59:27.213Z,100831.22
2023-03-21T21:01:55.657Z,100836.91
2023-03-21T21:04:23.065Z,100846.50
2023-03-21T21:06:53.784Z,100835.84
2023-03-21T21:09:20.849Z,100834.81
2023-03-21T21:14:35.792Z,100829.69
2023-03-21T21:17:15.508Z,100845.91
2023-03-21T21:19:52.001Z,100842.03
2023-03-21T21:22:18.809Z,100845.47
2023-03-21T21:24:45.209Z,100837.47
2023-03-21T21:27:11.958Z,100832.78
2023-03-21T21:29:38.433Z,100835.63
2023-03-21T21:32:05.714Z,100830.63
2023-03-21T21:34:32.409Z,100832.84
2023-03-21T21:36:58.923Z,100833.72
2023-03-21T21:39:26.495Z,100825.63
2023-03-21T21:41:53.551Z,100824.75
2023-03-21T21:44:20.297Z,100822.41
2023-03-21T21:46:47.086Z,100817.97
2023-03-21T21:49:13.536Z,100818.00
2023-03-21T21:51:41.808Z,100813.69
2023-03-21T21:54:08.447Z,100817.97
2023-03-21T21:56:36.959Z,100820.78
2023-03-21T21:59:04.485Z,100813.25
2023-03-21T22:01:34.510Z,100817.47
2023-03-21T22:04:07.949Z,100819.22
2023-03-21T22:06:34.790Z,100814.16
2023-03-21T22:09:01.270Z,100813.66
2023-03-21T22:11:27.830Z,100810.56
2023-03-21T22:13:54.266Z,100822.94
2023-03-21T22:16:20.949Z,100818.47
2023-03-21T22:18:47.576Z,100825.19
2023-03-21T22:21:13.996Z,100818.22
2023-03-21T22:23:41.419Z,100828.78
2023-03-21T22:26:09.136Z,100820.44
2023-03-21T22:28:36.247Z,100809.22
2023-03-21T22:31:11.630Z,100814.84
2023-03-21T22:33:38.328Z,100811.09
2023-03-21T22:36:05.301Z,100801.34
2023-03-21T22:38:34.367Z,100808.91
2023-03-21T22:41:04.871Z,100805.28
2023-03-21T22:43:35.260Z,100814.84
2023-03-21T22:46:02.807Z,100802.47
2023-03-21T22:48:30.129Z,100809.97
2023-03-21T22:51:00.471Z,100819.88
2023-03-21T22:53:27.399Z,100801.41
2023-03-21T22:55:54.096Z,100814.28
2023-03-21T22:58:20.955Z,100810.66
2023-03-21T23:00:47.644Z,100803.31
2023-03-21T23:03:16.497Z,100811.22
2023-03-21T23:05:44.175Z,100803.03
2023-03-21T23:08:11.026Z,100806.44
2023-03-21T23:10:39.420Z,100805.66
2023-03-21T23:13:06.209Z,100806.25
2023-03-21T23:15:32.649Z,100804.84
2023-03-21T23:17:59.046Z,100804.88
2023-03-21T23:20:25.443Z,100803.16
2023-03-21T23:22:51.871Z,100800.66
2023-03-21T23:25:20.451Z,100799.16
2023-03-21T23:27:47.139Z,100787.94
2023-03-21T23:30:13.677Z,100791.13
2023-03-21T23:32:40.068Z,100784.06
2023-03-21T23:35:07.150Z,100781.81
2023-03-21T23:37:33.560Z,100779.91
2023-03-21T23:40:00.010Z,100777.41
2023-03-21T23:42:29.384Z,100780.84
2023-03-21T23:44:56.007Z,100779.41
2023-03-21T23:47:22.457Z,100776.91
2023-03-21T23:49:49.957Z,100772.09
2023-03-21T23:52:16.403Z,100771.91
2023-03-21T23:54:43.018Z,100776.97
2023-03-21T23:57:09.810Z,100774.69
2023-03-21T23:59:36.199Z,100777.03
